Map

Track Data

SID SEASON NUMBER BASIN SUBBASIN NAME ISO_TIME NATURE LAT LON WMO_WIND WMO_PRES WMO_AGENCY TRACK_TYPE DIST2LAND LANDFALL IFLAG USA_AGENCY USA_ATCF_ID USA_LAT USA_LON USA_RECORD USA_STATUS USA_WIND USA_PRES USA_SSHS USA_R34_NE USA_R34_SE USA_R34_SW USA_R34_NW USA_R50_NE USA_R50_SE USA_R50_SW USA_R50_NW USA_R64_NE USA_R64_SE USA_R64_SW USA_R64_NW USA_POCI USA_ROCI USA_RMW USA_EYE TOKYO_LAT TOKYO_LON TOKYO_GRADE TOKYO_WIND TOKYO_PRES TOKYO_R50_DIR TOKYO_R50_LONG TOKYO_R50_SHORT TOKYO_R30_DIR TOKYO_R30_LONG TOKYO_R30_SHORT TOKYO_LAND CMA_LAT CMA_LON CMA_CAT CMA_WIND CMA_PRES HKO_LAT HKO_LON HKO_CAT HKO_WIND HKO_PRES NEWDELHI_LAT NEWDELHI_LON NEWDELHI_GRADE NEWDELHI_WIND NEWDELHI_PRES NEWDELHI_CI NEWDELHI_DP NEWDELHI_POCI REUNION_LAT REUNION_LON REUNION_TYPE REUNION_WIND REUNION_PRES REUNION_TNUM REUNION_CI REUNION_RMW REUNION_R34_NE REUNION_R34_SE REUNION_R34_SW REUNION_R34_NW REUNION_R50_NE REUNION_R50_SE REUNION_R50_SW REUNION_R50_NW REUNION_R64_NE REUNION_R64_SE REUNION_R64_SW REUNION_R64_NW BOM_LAT BOM_LON BOM_TYPE BOM_WIND BOM_PRES BOM_TNUM BOM_CI BOM_RMW BOM_R34_NE BOM_R34_SE BOM_R34_SW BOM_R34_NW BOM_R50_NE BOM_R50_SE BOM_R50_SW BOM_R50_NW BOM_R64_NE BOM_R64_SE BOM_R64_SW BOM_R64_NW BOM_ROCI BOM_POCI BOM_EYE BOM_POS_METHOD BOM_PRES_METHOD NADI_LAT NADI_LON NADI_CAT NADI_WIND NADI_PRES WELLINGTON_LAT WELLINGTON_LON WELLINGTON_WIND WELLINGTON_PRES DS824_LAT DS824_LON DS824_STAGE DS824_WIND DS824_PRES TD9636_LAT TD9636_LON TD9636_STAGE TD9636_WIND TD9636_PRES TD9635_LAT TD9635_LON TD9635_WIND TD9635_PRES TD9635_ROCI NEUMANN_LAT NEUMANN_LON NEUMANN_CLASS NEUMANN_WIND NEUMANN_PRES MLC_LAT MLC_LON MLC_CLASS MLC_WIND MLC_PRES USA_GUST BOM_GUST BOM_GUST_PER REUNION_GUST REUNION_GUST_PER USA_SEAHGT USA_SEARAD_NE USA_SEARAD_SE USA_SEARAD_SW USA_SEARAD_NW STORM_SPEED STORM_DIR
1986142N13253 1986 51 EP MM AGATHA 1986-05-22 00:00:00 TS 12.6000 -107.500 25 hurdat_epa main 768 768 O_________O___ hurdat_epa EP011986 12.6000 -107.500 TD 25 -1 12.6000 -107.500 1 25 4 171
1986142N13253 1986 51 EP MM AGATHA 1986-05-22 03:00:00 TS 12.3968 -107.455 main 787 781 P_________P___ EP011986 12.4025 -107.455 TD 25 -1 12.3796 -107.456 1 25 4 167
1986142N13253 1986 51 EP MM AGATHA 1986-05-22 06:00:00 TS 12.1919 -107.400 25 hurdat_epa main 800 800 O_________P___ hurdat_epa EP011986 12.2000 -107.400 TD 25 -1 12.1674 -107.400 1 25 4 162
1986142N13253 1986 51 EP MM AGATHA 1986-05-22 09:00:00 TS 11.9872 -107.322 main 814 814 P_________P___ EP011986 11.9925 -107.323 TD 25 -1 11.9715 -107.319 1 25 4 154
1986142N13253 1986 51 EP MM AGATHA 1986-05-22 12:00:00 TS 11.8000 -107.200 25 hurdat_epa main 828 828 O_________O___ hurdat_epa EP011986 11.8000 -107.200 TD 25 -1 11.8000 -107.200 1 25 5 139
1986142N13253 1986 51 EP MM AGATHA 1986-05-22 15:00:00 TS 11.6406 -107.020 main 838 834 P_________P___ EP011986 11.6350 -107.015 TD 25 -1 11.6576 -107.036 1 25 5 127
1986142N13253 1986 51 EP MM AGATHA 1986-05-22 18:00:00 TS 11.5088 -106.809 25 hurdat_epa main 839 835 O_________P___ hurdat_epa EP011986 11.5000 -106.800 TD 25 -1 11.5351 -106.838 1 25 5 120
1986142N13253 1986 51 EP MM AGATHA 1986-05-22 21:00:00 TS 11.4050 -106.600 main 841 836 P_________P___ EP011986 11.4000 -106.593 TD 25 -1 11.4200 -106.620 1 25 5 117
1986142N13253 1986 51 EP MM AGATHA 1986-05-23 00:00:00 TS 11.3000 -106.400 25 hurdat_epa main 843 839 O_________O___ hurdat_epa EP011986 11.3000 -106.400 TD 25 -1 11.3000 -106.400 1 25 4 125
1986142N13253 1986 51 EP MM AGATHA 1986-05-23 03:00:00 TS 11.1554 -106.240 main 846 846 P_________P___ EP011986 11.1575 -106.258 TD 25 -1 11.1491 -106.188 1 25 4 133
1986142N13253 1986 51 EP MM AGATHA 1986-05-23 06:00:00 TS 10.9981 -106.069 25 hurdat_epa main 863 860 O_________P___ hurdat_epa EP011986 11.0000 -106.100 TD 25 -1 10.9925 -105.977 1 25 5 128
1986142N13253 1986 51 EP MM AGATHA 1986-05-23 09:00:00 TS 10.8418 -105.838 main 874 871 P_________P___ EP011986 10.8425 -105.857 TD 25 -1 10.8397 -105.778 1 25 6 123
1986142N13253 1986 51 EP MM AGATHA 1986-05-23 12:00:00 TS 10.7000 -105.600 25 hurdat_epa main 877 874 O_________O___ hurdat_epa EP011986 10.7000 -105.600 TD 25 -1 10.7000 -105.600 1 25 5 120
1986142N13253 1986 51 EP MM AGATHA 1986-05-23 15:00:00 TS 10.5827 -105.387 main 881 876 P_________P___ EP011986 10.5925 -105.370 TD 27 -1 10.5531 -105.437 1 26 4 121
1986142N13253 1986 51 EP MM AGATHA 1986-05-23 18:00:00 TS 10.4812 -105.224 30 hurdat_epa main 880 880 O_________P___ hurdat_epa EP011986 10.5000 -105.200 TD 30 -1 10.4250 -105.298 1 27 3 129
1986142N13253 1986 51 EP MM AGATHA 1986-05-23 21:00:00 TS 10.3723 -105.119 main 884 884 P_________P___ EP011986 10.3850 -105.098 TD 30 -1 10.3344 -105.184 1 28 2 145
1986142N13253 1986 51 EP MM AGATHA 1986-05-24 00:00:00 TS 10.3000 -105.100 30 hurdat_epa main 894 894 O_________O___ hurdat_epa EP011986 10.3000 -105.100 TD 30 -1 10.3000 -105.100 1 30 1 223
1986142N13253 1986 51 EP MM AGATHA 1986-05-24 03:00:00 TS 10.2637 -105.218 main 900 900 P_________P___ EP011986 10.2550 -105.272 TD 32 -1 10.2897 -105.054 1 31 2 273
1986142N13253 1986 51 EP MM AGATHA 1986-05-24 06:00:00 TS 10.3106 -105.309 35 hurdat_epa main 905 890 O_________P___ hurdat_epa EP011986 10.3000 -105.400 TS 35 0 10.3425 -105.035 1 32 2 13
1986142N13253 1986 51 EP MM AGATHA 1986-05-24 09:00:00 TS 10.4486 -105.184 main 890 850 P_________P___ EP011986 10.4401 -105.238 TS 35 0 10.4741 -105.023 1 33 5 38
1986142N13253 1986 51 EP MM AGATHA 1986-05-24 12:00:00 TS 10.7000 -105.000 35 hurdat_epa main 850 815 O_________O___ hurdat_epa EP011986 10.7000 -105.000 TS 35 0 10.7000 -105.000 2 35 7 25
1986142N13253 1986 51 EP MM AGATHA 1986-05-24 15:00:00 TS 11.0548 -104.894 main 805 761 P_________P___ EP011986 11.0625 -104.877 TS 37 0 11.0316 -104.943 2 37 8 13
1986142N13253 1986 51 EP MM AGATHA 1986-05-24 18:00:00 TS 11.4881 -104.818 40 hurdat_epa main 761 722 O_________P___ hurdat_epa EP011986 11.5000 -104.800 TS 40 0 11.4526 -104.873 2 40 9 8
1986142N13253 1986 51 EP MM AGATHA 1986-05-24 21:00:00 TS 11.9431 -104.760 main 722 666 P_________P___ EP011986 11.9500 -104.750 TS 42 0 11.9222 -104.790 2 42 9 7
1986142N13253 1986 51 EP MM AGATHA 1986-05-25 00:00:00 TS 12.4000 -104.700 45 hurdat_epa main 666 620 O_________O___ hurdat_epa EP011986 12.4000 -104.700 TS 45 0 12.4000 -104.700 2 45 9 10
1986142N13253 1986 51 EP MM AGATHA 1986-05-25 03:00:00 TS 12.8062 -104.610 main 620 574 P_________P___ EP011986 12.8000 -104.607 TS 45 0 12.8250 -104.619 2 45 8 13
1986142N13253 1986 51 EP MM AGATHA 1986-05-25 06:00:00 TS 13.2125 -104.507 45 hurdat_epa main 574 528 O_________P___ hurdat_epa EP011986 13.2000 -104.500 TS 45 0 13.2499 -104.530 2 45 9 13
1986142N13253 1986 51 EP MM AGATHA 1986-05-25 09:00:00 TS 13.6506 -104.412 main 517 472 P_________P___ EP011986 13.6425 -104.407 TS 45 0 13.6749 -104.425 2 45 9 13
1986142N13253 1986 51 EP MM AGATHA 1986-05-25 12:00:00 TS 14.1000 -104.300 45 hurdat_epa main 472 426 O_________O___ hurdat_epa EP011986 14.1000 -104.300 TS 45 0 14.1000 -104.300 2 45 9 15
1986142N13253 1986 51 EP MM AGATHA 1986-05-25 15:00:00 TS 14.5585 -104.167 main 415 366 P_________P___ EP011986 14.5575 -104.165 TS 47 0 14.5614 -104.175 2 50 10 17
1986142N13253 1986 51 EP MM AGATHA 1986-05-25 18:00:00 TS 15.0043 -104.006 50 hurdat_epa main 366 316 O_________P___ hurdat_epa EP011986 15.0000 -104.000 TS 50 0 15.0172 -104.025 2 55 9 21
1986142N13253 1986 51 EP MM AGATHA 1986-05-25 21:00:00 TS 15.4211 -103.826 main 316 267 P_________P___ EP011986 15.4149 -103.822 TS 57 0 15.4394 -103.837 2 60 9 26
1986142N13253 1986 51 EP MM AGATHA 1986-05-26 00:00:00 TS 15.8000 -103.600 65 hurdat_epa main 267 214 O_________O___ hurdat_epa EP011986 15.8000 -103.600 HU 65 1 15.8000 -103.600 3 65 9 32
1986142N13253 1986 51 EP MM AGATHA 1986-05-26 03:00:00 TS 16.1822 -103.323 main 214 173 P_________P___ EP011986 16.2024 -103.330 HU 65 1 16.1217 -103.301 3 65 9 41
1986142N13253 1986 51 EP MM AGATHA 1986-05-26 06:00:00 TS 16.4682 -102.988 65 hurdat_epa main 173 148 O_________P___ hurdat_epa EP011986 16.5000 -103.000 HU 65 1 16.3726 -102.953 3 65 8 59
1986142N13253 1986 51 EP MM AGATHA 1986-05-26 09:00:00 TS 16.6031 -102.600 main 148 134 P_________P___ EP011986 16.6250 -102.607 HU 65 1 16.5373 -102.579 3 65 8 80
1986142N13253 1986 51 EP MM AGATHA 1986-05-26 12:00:00 TS 16.6000 -102.200 65 hurdat_epa main 134 123 O_________O___ hurdat_epa EP011986 16.6000 -102.200 HU 65 1 16.6000 -102.200 4 65 7 98
1986142N13253 1986 51 EP MM AGATHA 1986-05-26 15:00:00 TS 16.4965 -101.846 main 116 113 P_________P___ EP011986 16.4799 -101.842 HU 60 0 16.5463 -101.857 4 61 7 112
1986142N13253 1986 51 EP MM AGATHA 1986-05-26 18:00:00 TS 16.3243 -101.504 55 hurdat_epa main 119 116 O_________P___ hurdat_epa EP011986 16.3000 -101.500 TS 55 0 16.3971 -101.514 4 57 7 117
1986142N13253 1986 51 EP MM AGATHA 1986-05-26 21:00:00 TS 16.1567 -101.159 main 119 119 P_________P___ EP011986 16.1424 -101.158 TS 52 0 16.1994 -101.164 4 53 8 116
1986142N13253 1986 51 EP MM AGATHA 1986-05-27 00:00:00 TS 16.0000 -100.800 50 hurdat_epa main 127 116 O_________O___ hurdat_epa EP011986 16.0000 -100.800 TS 50 0 16.0000 -100.800 2 50 8 110
1986142N13253 1986 51 EP MM AGATHA 1986-05-27 03:00:00 TS 15.8919 -100.408 main 116 105 P_________P___ EP011986 15.9000 -100.408 TS 45 0 15.8678 -100.410 2 45 8 106
1986142N13253 1986 51 EP MM AGATHA 1986-05-27 06:00:00 TS 15.7856 -100.002 40 hurdat_epa main 105 102 O_________P___ hurdat_epa EP011986 15.8000 -100.000 TS 40 0 15.7424 -100.008 2 40 8 108
1986142N13253 1986 51 EP MM AGATHA 1986-05-27 09:00:00 TS 15.6427 -99.6003 main 123 110 P_________P___ EP011986 15.6499 -99.6000 TS 35 0 15.6209 -99.6011 2 35 8 110
1986142N13253 1986 51 EP MM AGATHA 1986-05-27 12:00:00 TS 15.5000 -99.2000 30 hurdat_epa main 110 99 O_________O___ hurdat_epa EP011986 15.5000 -99.2000 TD 30 -1 15.5000 -99.2000 1 30 8 108
1986142N13253 1986 51 EP MM AGATHA 1986-05-27 15:00:00 TS 15.3948 -98.7908 main 102 100 P_________P___ EP011986 15.4000 -98.7926 TD 30 -1 15.3791 -98.7854 1 30 8 105
1986142N13253 1986 51 EP MM AGATHA 1986-05-27 18:00:00 TS 15.2894 -98.3957 30 hurdat_epa main 101 92 O_________P___ hurdat_epa EP011986 15.3000 -98.4000 TD 30 -1 15.2577 -98.3826 1 30 8 108
1986142N13253 1986 51 EP MM AGATHA 1986-05-27 21:00:00 TS 15.1512 -98.0184 main 92 92 P_________P___ EP011986 15.1575 -98.0200 TD 30 -1 15.1323 -98.0135 1 30 7 113
1986142N13253 1986 51 EP MM AGATHA 1986-05-28 00:00:00 TS 15.0000 -97.7000 30 hurdat_epa main 111 109 O_________O___ hurdat_epa EP011986 15.0000 -97.7000 TD 30 -1 15.0000 -97.7000 1 30 6 120
1986142N13253 1986 51 EP MM AGATHA 1986-05-28 03:00:00 TS 14.8496 -97.4685 main 124 119 P_________P___ EP011986 14.8499 -97.4701 TD 30 -1 14.8487 -97.4636 1 30 5 128
1986142N13253 1986 51 EP MM AGATHA 1986-05-28 06:00:00 TS 14.6980 -97.2957 30 hurdat_epa main 124 119 O_________P___ hurdat_epa EP011986 14.7000 -97.3000 TD 30 -1 14.6921 -97.2827 1 30 4 133
1986142N13253 1986 51 EP MM AGATHA 1986-05-28 09:00:00 TS 14.5474 -97.1351 main 134 130 P_________P___ EP011986 14.5500 -97.1350 TD 30 -1 14.5394 -97.1355 1 30 4 136
1986142N13253 1986 51 EP MM AGATHA 1986-05-28 12:00:00 TS 14.4000 -97.0000 30 hurdat_epa main 141 141 O_________O___ hurdat_epa EP011986 14.4000 -97.0000 TD 30 -1 14.4000 -97.0000 1 30 4 142
1986142N13253 1986 51 EP MM AGATHA 1986-05-28 15:00:00 TS 14.2446 -96.8944 main 160 158 P_________P___ EP011986 14.2350 -96.9075 TD 32 -1 14.2733 -96.8551 1 31 4 143
1986142N13253 1986 51 EP MM AGATHA 1986-05-28 18:00:00 TS 14.1156 -96.7788 35 hurdat_epa main 169 167 O_________P___ hurdat_epa EP011986 14.1000 -96.8000 TS 35 0 14.1623 -96.7151 1 32 3 125
1986142N13253 1986 51 EP MM AGATHA 1986-05-28 21:00:00 TS 14.0438 -96.6032 main 179 179 P_________P___ EP011986 14.0350 -96.6150 TS 35 0 14.0702 -96.5675 1 33 4 107
1986142N13253 1986 51 EP MM AGATHA 1986-05-29 00:00:00 TS 14.0000 -96.4000 35 hurdat_epa main 180 180 O_________O___ hurdat_epa EP011986 14.0000 -96.4000 TS 35 0 14.0000 -96.4000 2 35 4 104
1986142N13253 1986 51 EP MM AGATHA 1986-05-29 03:00:00 TS 13.9452 -96.2065 main 195 195 P_________P___ EP011986 13.9425 -96.2075 TS 30 -1 13.9533 -96.2034 2 32 4 103
1986142N13253 1986 51 EP MM AGATHA 1986-05-29 06:00:00 TS 13.9063 -95.9956 25 hurdat_epa main 200 200 O_________P___ hurdat_epa EP011986 13.9000 -96.0000 TD 25 -1 13.9253 -95.9825 2 30 4 97
1986142N13253 1986 51 EP MM AGATHA 1986-05-29 09:00:00 TS 13.8950 -95.7563 main 206 206 P_________P___ EP011986 13.8901 -95.7600 TD 25 -1 13.9096 -95.7453 2 27 5 91
1986142N13253 1986 51 EP MM AGATHA 1986-05-29 12:00:00 TS 13.9000 -95.5000 25 hurdat_epa main 215 O_________O___ hurdat_epa EP011986 13.9000 -95.5000 TD 25 -1 13.9000 -95.5000 1 25 5 89

About IBTrACS Database

This database is a web-friendly format of International Best Track Archive for Climate Stewardship (IBTrACS), a global best track data archive curated by NOAA dating back to 1842.

Updated: 2021-12-03